sensor_id;sensor_type;location;lat;lon;timestamp;pressure;altitude;pressure_sealevel;temperature
65569;BMP180;52211;50.154;8.682;2023-02-01T00:01:40;100504.00;;;10.90
65569;BMP180;52211;50.154;8.682;2023-02-01T00:04:06;100499.00;;;10.90
65569;BMP180;52211;50.154;8.682;2023-02-01T00:06:38;100509.00;;;10.90
65569;BMP180;52211;50.154;8.682;2023-02-01T00:09:07;100505.00;;;10.90
65569;BMP180;52211;50.154;8.682;2023-02-01T00:11:42;100507.00;;;10.90
65569;BMP180;52211;50.154;8.682;2023-02-01T00:14:12;100495.00;;;10.90
65569;BMP180;52211;50.154;8.682;2023-02-01T00:16:41;100505.00;;;10.90
65569;BMP180;52211;50.154;8.682;2023-02-01T00:19:13;100511.00;;;10.90
65569;BMP180;52211;50.154;8.682;2023-02-01T00:21:41;100506.00;;;10.90
65569;BMP180;52211;50.154;8.682;2023-02-01T00:24:11;100492.00;;;10.90
65569;BMP180;52211;50.154;8.682;2023-02-01T00:26:44;100494.00;;;11.00
65569;BMP180;52211;50.154;8.682;2023-02-01T00:29:17;100491.00;;;10.90
65569;BMP180;52211;50.154;8.682;2023-02-01T00:31:49;100493.00;;;10.90
65569;BMP180;52211;50.154;8.682;2023-02-01T00:34:19;100479.00;;;10.90
65569;BMP180;52211;50.154;8.682;2023-02-01T00:36:49;100487.00;;;10.90
65569;BMP180;52211;50.154;8.682;2023-02-01T00:39:21;100491.00;;;11.00
65569;BMP180;52211;50.154;8.682;2023-02-01T00:41:52;100492.00;;;11.00
65569;BMP180;52211;50.154;8.682;2023-02-01T00:44:26;100490.00;;;11.00
65569;BMP180;52211;50.154;8.682;2023-02-01T00:46:58;100489.00;;;11.00
65569;BMP180;52211;50.154;8.682;2023-02-01T00:49:25;100495.00;;;11.00
65569;BMP180;52211;50.154;8.682;2023-02-01T00:51:56;100476.00;;;11.00
65569;BMP180;52211;50.154;8.682;2023-02-01T00:54:25;100471.00;;;11.00
65569;BMP180;52211;50.154;8.682;2023-02-01T00:56:52;100484.00;;;11.00
65569;BMP180;52211;50.154;8.682;2023-02-01T00:59:24;100486.00;;;11.00
65569;BMP180;52211;50.154;8.682;2023-02-01T01:01:54;100485.00;;;11.00
65569;BMP180;52211;50.154;8.682;2023-02-01T01:04:23;100483.00;;;11.00
65569;BMP180;52211;50.154;8.682;2023-02-01T01:06:50;100489.00;;;11.00
65569;BMP180;52211;50.154;8.682;2023-02-01T01:09:17;100493.00;;;11.00
65569;BMP180;52211;50.154;8.682;2023-02-01T01:11:46;100493.00;;;10.90
65569;BMP180;52211;50.154;8.682;2023-02-01T01:14:13;100492.00;;;11.00
65569;BMP180;52211;50.154;8.682;2023-02-01T01:16:42;100491.00;;;11.00
65569;BMP180;52211;50.154;8.682;2023-02-01T01:19:12;100480.00;;;10.90
65569;BMP180;52211;50.154;8.682;2023-02-01T01:21:40;100474.00;;;11.00
65569;BMP180;52211;50.154;8.682;2023-02-01T01:24:09;100478.00;;;11.00
65569;BMP180;52211;50.154;8.682;2023-02-01T01:26:39;100484.00;;;11.00
65569;BMP180;52211;50.154;8.682;2023-02-01T01:29:11;100474.00;;;11.00
65569;BMP180;52211;50.154;8.682;2023-02-01T01:31:38;100480.00;;;11.00
65569;BMP180;52211;50.154;8.682;2023-02-01T01:34:05;100467.00;;;11.00
65569;BMP180;52211;50.154;8.682;2023-02-01T01:36:35;100471.00;;;11.00
65569;BMP180;52211;50.154;8.682;2023-02-01T01:39:02;100478.00;;;11.00
65569;BMP180;52211;50.154;8.682;2023-02-01T01:41:32;100470.00;;;11.00
65569;BMP180;52211;50.154;8.682;2023-02-01T01:44:57;100458.00;;;10.90
65569;BMP180;52211;50.154;8.682;2023-02-01T01:47:30;100463.00;;;10.90
65569;BMP180;52211;50.154;8.682;2023-02-01T01:50:07;100458.00;;;10.90
65569;BMP180;52211;50.154;8.682;2023-02-01T01:52:36;100458.00;;;10.90
65569;BMP180;52211;50.154;8.682;2023-02-01T01:55:04;100459.00;;;10.90
65569;BMP180;52211;50.154;8.682;2023-02-01T01:57:39;100456.00;;;10.90
65569;BMP180;52211;50.154;8.682;2023-02-01T02:00:14;100462.00;;;10.90
65569;BMP180;52211;50.154;8.682;2023-02-01T02:02:48;100457.00;;;10.90
65569;BMP180;52211;50.154;8.682;2023-02-01T02:05:19;100452.00;;;10.90
65569;BMP180;52211;50.154;8.682;2023-02-01T02:07:53;100431.00;;;11.00
65569;BMP180;52211;50.154;8.682;2023-02-01T02:10:23;100427.00;;;11.00
65569;BMP180;52211;50.154;8.682;2023-02-01T02:13:11;100427.00;;;11.00
65569;BMP180;52211;50.154;8.682;2023-02-01T02:21:50;100426.00;;;11.00
65569;BMP180;52211;50.154;8.682;2023-02-01T02:36:09;100444.00;;;11.00
65569;BMP180;52211;50.154;8.682;2023-02-01T02:54:10;100453.00;;;11.00
65569;BMP180;52211;50.154;8.682;2023-02-01T02:57:04;100448.00;;;11.00
65569;BMP180;52211;50.154;8.682;2023-02-01T03:00:00;100426.00;;;11.00
65569;BMP180;52211;50.154;8.682;2023-02-01T03:02:49;100437.00;;;11.00
65569;BMP180;52211;50.154;8.682;2023-02-01T03:05:44;100442.00;;;11.00
65569;BMP180;52211;50.154;8.682;2023-02-01T03:08:24;100435.00;;;11.00
65569;BMP180;52211;50.154;8.682;2023-02-01T03:11:09;100430.00;;;11.00
65569;BMP180;52211;50.154;8.682;2023-02-01T03:13:56;100421.00;;;11.00
65569;BMP180;52211;50.154;8.682;2023-02-01T03:19:22;100423.00;;;11.00
65569;BMP180;52211;50.154;8.682;2023-02-01T03:22:01;100421.00;;;11.00
65569;BMP180;52211;50.154;8.682;2023-02-01T03:24:50;100413.00;;;11.10
65569;BMP180;52211;50.154;8.682;2023-02-01T03:27:30;100422.00;;;11.10
65569;BMP180;52211;50.154;8.682;2023-02-01T03:30:48;100412.00;;;11.00
65569;BMP180;52211;50.154;8.682;2023-02-01T03:33:23;100421.00;;;11.10
65569;BMP180;52211;50.154;8.682;2023-02-01T03:36:15;100424.00;;;11.10
65569;BMP180;52211;50.154;8.682;2023-02-01T03:39:12;100414.00;;;11.10
65569;BMP180;52211;50.154;8.682;2023-02-01T03:41:55;100409.00;;;11.10
65569;BMP180;52211;50.154;8.682;2023-02-01T03:44:53;100409.00;;;11.10
65569;BMP180;52211;50.154;8.682;2023-02-01T03:47:34;100403.00;;;11.10
65569;BMP180;52211;50.154;8.682;2023-02-01T03:50:12;100415.00;;;11.10
65569;BMP180;52211;50.154;8.682;2023-02-01T03:53:01;100407.00;;;11.10
65569;BMP180;52211;50.154;8.682;2023-02-01T03:55:38;100412.00;;;11.10
65569;BMP180;52211;50.154;8.682;2023-02-01T03:58:23;100400.00;;;11.10
65569;BMP180;52211;50.154;8.682;2023-02-01T04:00:54;100401.00;;;11.10
65569;BMP180;52211;50.154;8.682;2023-02-01T04:03:28;100396.00;;;11.10
65569;BMP180;52211;50.154;8.682;2023-02-01T04:05:58;100390.00;;;11.10
65569;BMP180;52211;50.154;8.682;2023-02-01T04:08:28;100385.00;;;11.10
65569;BMP180;52211;50.154;8.682;2023-02-01T04:11:00;100387.00;;;11.10
65569;BMP180;52211;50.154;8.682;2023-02-01T04:13:29;100393.00;;;11.10
65569;BMP180;52211;50.154;8.682;2023-02-01T04:15:56;100396.00;;;11.10
65569;BMP180;52211;50.154;8.682;2023-02-01T04:18:25;100399.00;;;11.10
65569;BMP180;52211;50.154;8.682;2023-02-01T04:20:55;100396.00;;;11.10
65569;BMP180;52211;50.154;8.682;2023-02-01T04:23:24;100401.00;;;11.10
65569;BMP180;52211;50.154;8.682;2023-02-01T04:25:52;100389.00;;;11.10
65569;BMP180;52211;50.154;8.682;2023-02-01T04:28:24;100403.00;;;11.10
65569;BMP180;52211;50.154;8.682;2023-02-01T04:30:53;100397.00;;;11.10
65569;BMP180;52211;50.154;8.682;2023-02-01T04:33:23;100407.00;;;11.20
65569;BMP180;52211;50.154;8.682;2023-02-01T04:35:55;100405.00;;;11.20
65569;BMP180;52211;50.154;8.682;2023-02-01T04:38:24;100400.00;;;11.20
65569;BMP180;52211;50.154;8.682;2023-02-01T04:40:54;100402.00;;;11.20
65569;BMP180;52211;50.154;8.682;2023-02-01T04:43:21;100401.00;;;11.20
65569;BMP180;52211;50.154;8.682;2023-02-01T04:45:49;100409.00;;;11.20
65569;BMP180;52211;50.154;8.682;2023-02-01T04:48:18;100390.00;;;11.20
65569;BMP180;52211;50.154;8.682;2023-02-01T04:50:53;100386.00;;;11.20
65569;BMP180;52211;50.154;8.682;2023-02-01T04:53:22;100395.00;;;11.20
65569;BMP180;52211;50.154;8.682;2023-02-01T04:55:53;100389.00;;;11.20
65569;BMP180;52211;50.154;8.682;2023-02-01T04:58:22;100384.00;;;11.20
65569;BMP180;52211;50.154;8.682;2023-02-01T05:00:53;100390.00;;;11.20
65569;BMP180;52211;50.154;8.682;2023-02-01T05:03:25;100385.00;;;11.20
65569;BMP180;52211;50.154;8.682;2023-02-01T05:05:55;100381.00;;;11.20
65569;BMP180;52211;50.154;8.682;2023-02-01T05:08:24;100380.00;;;11.20
65569;BMP180;52211;50.154;8.682;2023-02-01T05:10:54;100391.00;;;11.20
65569;BMP180;52211;50.154;8.682;2023-02-01T05:13:21;100386.00;;;11.20
65569;BMP180;52211;50.154;8.682;2023-02-01T05:16:06;100381.00;;;11.20
65569;BMP180;52211;50.154;8.682;2023-02-01T05:18:38;100384.00;;;11.20
65569;BMP180;52211;50.154;8.682;2023-02-01T05:21:09;100385.00;;;11.20
65569;BMP180;52211;50.154;8.682;2023-02-01T05:23:36;100377.00;;;11.20
65569;BMP180;52211;50.154;8.682;2023-02-01T05:26:26;100370.00;;;11.20
65569;BMP180;52211;50.154;8.682;2023-02-01T05:28:56;100370.00;;;11.20
65569;BMP180;52211;50.154;8.682;2023-02-01T05:31:25;100388.00;;;11.20
65569;BMP180;52211;50.154;8.682;2023-02-01T05:33:52;100389.00;;;11.20
65569;BMP180;52211;50.154;8.682;2023-02-01T05:36:19;100384.00;;;11.20
65569;BMP180;52211;50.154;8.682;2023-02-01T05:38:46;100389.00;;;11.20
65569;BMP180;52211;50.154;8.682;2023-02-01T05:41:15;100389.00;;;11.20
65569;BMP180;52211;50.154;8.682;2023-02-01T05:43:44;100383.00;;;11.20
65569;BMP180;52211;50.154;8.682;2023-02-01T05:46:12;100379.00;;;11.20
65569;BMP180;52211;50.154;8.682;2023-02-01T05:48:41;100380.00;;;11.20
65569;BMP180;52211;50.154;8.682;2023-02-01T05:51:14;100379.00;;;11.20
65569;BMP180;52211;50.154;8.682;2023-02-01T05:53:43;100381.00;;;11.20
65569;BMP180;52211;50.154;8.682;2023-02-01T05:56:11;100380.00;;;11.20
65569;BMP180;52211;50.154;8.682;2023-02-01T05:58:40;100375.00;;;11.10
65569;BMP180;52211;50.154;8.682;2023-02-01T06:01:09;100366.00;;;11.20
65569;BMP180;52211;50.154;8.682;2023-02-01T06:03:38;100356.00;;;11.20
65569;BMP180;52211;50.154;8.682;2023-02-01T06:06:05;100363.00;;;11.10
65569;BMP180;52211;50.154;8.682;2023-02-01T06:08:35;100364.00;;;11.10
65569;BMP180;52211;50.154;8.682;2023-02-01T06:11:11;100354.00;;;11.10
65569;BMP180;52211;50.154;8.682;2023-02-01T06:13:57;100365.00;;;11.00
65569;BMP180;52211;50.154;8.682;2023-02-01T06:16:29;100358.00;;;11.00
65569;BMP180;52211;50.154;8.682;2023-02-01T06:18:56;100354.00;;;11.00
65569;BMP180;52211;50.154;8.682;2023-02-01T06:21:25;100356.00;;;11.00
65569;BMP180;52211;50.154;8.682;2023-02-01T06:23:57;100367.00;;;11.00
65569;BMP180;52211;50.154;8.682;2023-02-01T06:26:25;100370.00;;;10.90
65569;BMP180;52211;50.154;8.682;2023-02-01T06:28:54;100365.00;;;10.90
65569;BMP180;52211;50.154;8.682;2023-02-01T06:31:26;100364.00;;;10.90
65569;BMP180;52211;50.154;8.682;2023-02-01T06:33:53;100354.00;;;10.90
65569;BMP180;52211;50.154;8.682;2023-02-01T06:36:22;100358.00;;;10.90
65569;BMP180;52211;50.154;8.682;2023-02-01T06:38:49;100365.00;;;10.90
65569;BMP180;52211;50.154;8.682;2023-02-01T06:41:21;100364.00;;;10.90
65569;BMP180;52211;50.154;8.682;2023-02-01T06:43:48;100361.00;;;10.90
65569;BMP180;52211;50.154;8.682;2023-02-01T06:46:17;100366.00;;;10.90
65569;BMP180;52211;50.154;8.682;2023-02-01T06:48:44;100367.00;;;10.90
65569;BMP180;52211;50.154;8.682;2023-02-01T06:51:25;100362.00;;;10.80
65569;BMP180;52211;50.154;8.682;2023-02-01T06:53:53;100366.00;;;10.80
65569;BMP180;52211;50.154;8.682;2023-02-01T06:56:20;100361.00;;;10.80
65569;BMP180;52211;50.154;8.682;2023-02-01T06:58:50;100369.00;;;10.80
65569;BMP180;52211;50.154;8.682;2023-02-01T07:01:19;100374.00;;;10.80
65569;BMP180;52211;50.154;8.682;2023-02-01T07:03:50;100371.00;;;10.80
65569;BMP180;52211;50.154;8.682;2023-02-01T07:06:19;100356.00;;;10.80
65569;BMP180;52211;50.154;8.682;2023-02-01T07:08:49;100357.00;;;10.80
65569;BMP180;52211;50.154;8.682;2023-02-01T07:11:19;100354.00;;;10.80
65569;BMP180;52211;50.154;8.682;2023-02-01T07:13:48;100351.00;;;10.80
65569;BMP180;52211;50.154;8.682;2023-02-01T07:16:19;100343.00;;;10.80
65569;BMP180;52211;50.154;8.682;2023-02-01T07:18:53;100336.00;;;10.80
65569;BMP180;52211;50.154;8.682;2023-02-01T07:21:21;100339.00;;;10.80
65569;BMP180;52211;50.154;8.682;2023-02-01T07:23:50;100342.00;;;10.80
65569;BMP180;52211;50.154;8.682;2023-02-01T07:26:19;100351.00;;;10.80
65569;BMP180;52211;50.154;8.682;2023-02-01T07:28:47;100360.00;;;10.80
65569;BMP180;52211;50.154;8.682;2023-02-01T07:31:17;100365.00;;;10.80
65569;BMP180;52211;50.154;8.682;2023-02-01T07:33:50;100367.00;;;10.80
65569;BMP180;52211;50.154;8.682;2023-02-01T07:36:22;100375.00;;;10.80
65569;BMP180;52211;50.154;8.682;2023-02-01T07:38:53;100387.00;;;10.80
65569;BMP180;52211;50.154;8.682;2023-02-01T07:41:23;100391.00;;;10.80
65569;BMP180;52211;50.154;8.682;2023-02-01T07:43:53;100401.00;;;10.90
65569;BMP180;52211;50.154;8.682;2023-02-01T07:46:20;100409.00;;;10.90
65569;BMP180;52211;50.154;8.682;2023-02-01T07:48:47;100412.00;;;10.90
65569;BMP180;52211;50.154;8.682;2023-02-01T07:51:19;100415.00;;;10.90
65569;BMP180;52211;50.154;8.682;2023-02-01T07:53:46;100419.00;;;10.90
65569;BMP180;52211;50.154;8.682;2023-02-01T07:56:18;100419.00;;;11.00
65569;BMP180;52211;50.154;8.682;2023-02-01T07:58:50;100410.00;;;11.00
65569;BMP180;52211;50.154;8.682;2023-02-01T08:01:27;100409.00;;;11.00
65569;BMP180;52211;50.154;8.682;2023-02-01T08:03:58;100419.00;;;10.90
65569;BMP180;52211;50.154;8.682;2023-02-01T08:06:28;100402.00;;;10.90
65569;BMP180;52211;50.154;8.682;2023-02-01T08:09:00;100413.00;;;10.90
65569;BMP180;52211;50.154;8.682;2023-02-01T08:11:28;100418.00;;;10.90
65569;BMP180;52211;50.154;8.682;2023-02-01T08:13:58;100424.00;;;10.90
65569;BMP180;52211;50.154;8.682;2023-02-01T08:16:27;100429.00;;;10.90
65569;BMP180;52211;50.154;8.682;2023-02-01T08:18:55;100428.00;;;10.90
65569;BMP180;52211;50.154;8.682;2023-02-01T08:21:30;100436.00;;;10.90
65569;BMP180;52211;50.154;8.682;2023-02-01T08:24:08;100424.00;;;10.90
65569;BMP180;52211;50.154;8.682;2023-02-01T08:26:43;100432.00;;;10.90
65569;BMP180;52211;50.154;8.682;2023-02-01T08:29:13;100444.00;;;11.00
65569;BMP180;52211;50.154;8.682;2023-02-01T08:31:44;100436.00;;;11.00
65569;BMP180;52211;50.154;8.682;2023-02-01T08:34:11;100435.00;;;11.00
65569;BMP180;52211;50.154;8.682;2023-02-01T08:36:39;100437.00;;;11.00
65569;BMP180;52211;50.154;8.682;2023-02-01T08:39:11;100441.00;;;11.00
65569;BMP180;52211;50.154;8.682;2023-02-01T08:41:38;100442.00;;;11.00
65569;BMP180;52211;50.154;8.682;2023-02-01T08:44:08;100440.00;;;11.00
65569;BMP180;52211;50.154;8.682;2023-02-01T08:46:39;100438.00;;;11.10
65569;BMP180;52211;50.154;8.682;2023-02-01T08:49:12;100435.00;;;11.10
65569;BMP180;52211;50.154;8.682;2023-02-01T08:51:44;100436.00;;;11.10
65569;BMP180;52211;50.154;8.682;2023-02-01T08:54:13;100429.00;;;11.10
65569;BMP180;52211;50.154;8.682;2023-02-01T08:56:40;100436.00;;;11.10
65569;BMP180;52211;50.154;8.682;2023-02-01T08:59:10;100433.00;;;11.10
65569;BMP180;52211;50.154;8.682;2023-02-01T09:01:40;100434.00;;;11.10
65569;BMP180;52211;50.154;8.682;2023-02-01T09:04:09;100431.00;;;11.10
65569;BMP180;52211;50.154;8.682;2023-02-01T09:06:41;100444.00;;;11.10
65569;BMP180;52211;50.154;8.682;2023-02-01T09:09:12;100438.00;;;11.20
65569;BMP180;52211;50.154;8.682;2023-02-01T09:11:42;100434.00;;;11.20
65569;BMP180;52211;50.154;8.682;2023-02-01T09:14:11;100437.00;;;11.20
65569;BMP180;52211;50.154;8.682;2023-02-01T09:16:40;100441.00;;;11.20
65569;BMP180;52211;50.154;8.682;2023-02-01T09:19:12;100433.00;;;11.20
65569;BMP180;52211;50.154;8.682;2023-02-01T09:21:52;100442.00;;;11.20
65569;BMP180;52211;50.154;8.682;2023-02-01T09:24:23;100449.00;;;11.20
65569;BMP180;52211;50.154;8.682;2023-02-01T09:26:50;100447.00;;;11.30
65569;BMP180;52211;50.154;8.682;2023-02-01T09:29:20;100451.00;;;11.30
65569;BMP180;52211;50.154;8.682;2023-02-01T09:31:52;100469.00;;;11.30
65569;BMP180;52211;50.154;8.682;2023-02-01T09:34:33;100465.00;;;11.30
65569;BMP180;52211;50.154;8.682;2023-02-01T09:37:00;100469.00;;;11.30
65569;BMP180;52211;50.154;8.682;2023-02-01T09:39:28;100476.00;;;11.30
65569;BMP180;52211;50.154;8.682;2023-02-01T09:45:44;100492.00;;;11.30
65569;BMP180;52211;50.154;8.682;2023-02-01T09:48:29;100496.00;;;11.30
65569;BMP180;52211;50.154;8.682;2023-02-01T09:51:06;100501.00;;;11.40
65569;BMP180;52211;50.154;8.682;2023-02-01T09:53:38;100491.00;;;11.40
65569;BMP180;52211;50.154;8.682;2023-02-01T09:56:18;100498.00;;;11.50
65569;BMP180;52211;50.154;8.682;2023-02-01T09:59:08;100486.00;;;11.50
65569;BMP180;52211;50.154;8.682;2023-02-01T10:01:39;100479.00;;;11.50
65569;BMP180;52211;50.154;8.682;2023-02-01T10:04:11;100486.00;;;11.50
65569;BMP180;52211;50.154;8.682;2023-02-01T10:09:29;100475.00;;;11.50
65569;BMP180;52211;50.154;8.682;2023-02-01T10:20:36;100480.00;;;11.60
65569;BMP180;52211;50.154;8.682;2023-02-01T10:26:26;100471.00;;;11.60
65569;BMP180;52211;50.154;8.682;2023-02-01T10:29:02;100459.00;;;11.60
65569;BMP180;52211;50.154;8.682;2023-02-01T10:31:35;100450.00;;;11.60
65569;BMP180;52211;50.154;8.682;2023-02-01T10:34:27;100440.00;;;11.60
65569;BMP180;52211;50.154;8.682;2023-02-01T10:37:04;100452.00;;;11.70
65569;BMP180;52211;50.154;8.682;2023-02-01T10:39:37;100444.00;;;11.70
65569;BMP180;52211;50.154;8.682;2023-02-01T10:42:08;100453.00;;;11.70
65569;BMP180;52211;50.154;8.682;2023-02-01T10:44:44;100452.00;;;11.70
65569;BMP180;52211;50.154;8.682;2023-02-01T10:47:15;100467.00;;;11.70
65569;BMP180;52211;50.154;8.682;2023-02-01T10:53:05;100450.00;;;11.70
65569;BMP180;52211;50.154;8.682;2023-02-01T10:58:30;100450.00;;;11.80
65569;BMP180;52211;50.154;8.682;2023-02-01T11:01:08;100443.00;;;11.80
65569;BMP180;52211;50.154;8.682;2023-02-01T11:06:34;100444.00;;;11.80
65569;BMP180;52211;50.154;8.682;2023-02-01T11:17:12;100420.00;;;11.80
65569;BMP180;52211;50.154;8.682;2023-02-01T11:19:56;100426.00;;;11.80
65569;BMP180;52211;50.154;8.682;2023-02-01T11:22:27;100434.00;;;11.90
65569;BMP180;52211;50.154;8.682;2023-02-01T11:25:01;100425.00;;;11.90
65569;BMP180;52211;50.154;8.682;2023-02-01T11:27:37;100430.00;;;11.90
65569;BMP180;52211;50.154;8.682;2023-02-01T11:30:40;100436.00;;;11.90
65569;BMP180;52211;50.154;8.682;2023-02-01T11:33:20;100421.00;;;11.90
65569;BMP180;52211;50.154;8.682;2023-02-01T11:35:48;100417.00;;;11.90
65569;BMP180;52211;50.154;8.682;2023-02-01T11:38:32;100421.00;;;11.90
65569;BMP180;52211;50.154;8.682;2023-02-01T11:41:18;100402.00;;;11.90
65569;BMP180;52211;50.154;8.682;2023-02-01T11:44:01;100417.00;;;11.90
65569;BMP180;52211;50.154;8.682;2023-02-01T11:46:46;100417.00;;;12.00
65569;BMP180;52211;50.154;8.682;2023-02-01T11:52:22;100419.00;;;12.00
65569;BMP180;52211;50.154;8.682;2023-02-01T12:06:47;100403.00;;;12.00
65569;BMP180;52211;50.154;8.682;2023-02-01T12:12:03;100397.00;;;12.10
65569;BMP180;52211;50.154;8.682;2023-02-01T12:15:08;100399.00;;;12.10
65569;BMP180;52211;50.154;8.682;2023-02-01T12:24:28;100387.00;;;12.10
65569;BMP180;52211;50.154;8.682;2023-02-01T12:29:56;100387.00;;;12.20
65569;BMP180;52211;50.154;8.682;2023-02-01T12:35:53;100390.00;;;12.30
65569;BMP180;52211;50.154;8.682;2023-02-01T12:38:55;100391.00;;;12.30
65569;BMP180;52211;50.154;8.682;2023-02-01T12:42:12;100381.00;;;12.30
65569;BMP180;52211;50.154;8.682;2023-02-01T12:45:00;100366.00;;;12.40
65569;BMP180;52211;50.154;8.682;2023-02-01T12:47:44;100382.00;;;12.40
65569;BMP180;52211;50.154;8.682;2023-02-01T12:50:26;100369.00;;;12.40
65569;BMP180;52211;50.154;8.682;2023-02-01T12:53:46;100361.00;;;12.30
65569;BMP180;52211;50.154;8.682;2023-02-01T12:56:36;100369.00;;;12.30
65569;BMP180;52211;50.154;8.682;2023-02-01T12:59:21;100368.00;;;12.40
65569;BMP180;52211;50.154;8.682;2023-02-01T13:02:05;100369.00;;;12.40
65569;BMP180;52211;50.154;8.682;2023-02-01T13:05:17;100362.00;;;12.30
65569;BMP180;52211;50.154;8.682;2023-02-01T13:08:14;100353.00;;;12.30
65569;BMP180;52211;50.154;8.682;2023-02-01T13:14:32;100358.00;;;12.30
65569;BMP180;52211;50.154;8.682;2023-02-01T13:17:18;100340.00;;;12.30
65569;BMP180;52211;50.154;8.682;2023-02-01T13:20:10;100354.00;;;12.30
65569;BMP180;52211;50.154;8.682;2023-02-01T13:22:46;100346.00;;;12.30
65569;BMP180;52211;50.154;8.682;2023-02-01T13:25:42;100344.00;;;12.30
65569;BMP180;52211;50.154;8.682;2023-02-01T13:38:11;100336.00;;;12.30
65569;BMP180;52211;50.154;8.682;2023-02-01T13:40:50;100338.00;;;12.30
65569;BMP180;52211;50.154;8.682;2023-02-01T13:43:30;100326.00;;;12.30
65569;BMP180;52211;50.154;8.682;2023-02-01T13:46:07;100334.00;;;12.40
65569;BMP180;52211;50.154;8.682;2023-02-01T13:48:38;100341.00;;;12.40
65569;BMP180;52211;50.154;8.682;2023-02-01T13:51:08;100323.00;;;12.40
65569;BMP180;52211;50.154;8.682;2023-02-01T13:53:37;100326.00;;;12.40
65569;BMP180;52211;50.154;8.682;2023-02-01T13:56:19;100325.00;;;12.40
65569;BMP180;52211;50.154;8.682;2023-02-01T13:58:51;100334.00;;;12.50
65569;BMP180;52211;50.154;8.682;2023-02-01T14:19:29;100301.00;;;12.60
65569;BMP180;52211;50.154;8.682;2023-02-01T14:22:01;100305.00;;;12.60
65569;BMP180;52211;50.154;8.682;2023-02-01T14:24:58;100296.00;;;12.70
65569;BMP180;52211;50.154;8.682;2023-02-01T14:27:35;100301.00;;;12.80
65569;BMP180;52211;50.154;8.682;2023-02-01T14:30:11;100287.00;;;12.90
65569;BMP180;52211;50.154;8.682;2023-02-01T14:32:43;100300.00;;;13.00
65569;BMP180;52211;50.154;8.682;2023-02-01T14:35:24;100292.00;;;13.20
65569;BMP180;52211;50.154;8.682;2023-02-01T14:38:01;100273.00;;;13.40
65569;BMP180;52211;50.154;8.682;2023-02-01T14:40:34;100292.00;;;13.60
65569;BMP180;52211;50.154;8.682;2023-02-01T14:43:07;100284.00;;;13.70
65569;BMP180;52211;50.154;8.682;2023-02-01T14:45:57;100275.00;;;13.80
65569;BMP180;52211;50.154;8.682;2023-02-01T14:50:59;100275.00;;;13.80
65569;BMP180;52211;50.154;8.682;2023-02-01T14:53:34;100271.00;;;13.90
65569;BMP180;52211;50.154;8.682;2023-02-01T14:56:13;100282.00;;;13.80
65569;BMP180;52211;50.154;8.682;2023-02-01T14:59:00;100279.00;;;13.80
65569;BMP180;52211;50.154;8.682;2023-02-01T15:01:36;100269.00;;;13.80
65569;BMP180;52211;50.154;8.682;2023-02-01T15:06:49;100281.00;;;13.90
65569;BMP180;52211;50.154;8.682;2023-02-01T15:09:28;100299.00;;;13.90
65569;BMP180;52211;50.154;8.682;2023-02-01T15:14:40;100282.00;;;13.80
65569;BMP180;52211;50.154;8.682;2023-02-01T15:17:28;100288.00;;;13.70
65569;BMP180;52211;50.154;8.682;2023-02-01T15:23:16;100294.00;;;13.50
65569;BMP180;52211;50.154;8.682;2023-02-01T15:25:46;100289.00;;;13.50
65569;BMP180;52211;50.154;8.682;2023-02-01T15:28:15;100279.00;;;13.50
65569;BMP180;52211;50.154;8.682;2023-02-01T15:31:05;100286.00;;;13.40
65569;BMP180;52211;50.154;8.682;2023-02-01T15:33:34;100315.00;;;13.40
65569;BMP180;52211;50.154;8.682;2023-02-01T15:36:17;100300.00;;;13.30
65569;BMP180;52211;50.154;8.682;2023-02-01T15:38:47;100285.00;;;13.30
65569;BMP180;52211;50.154;8.682;2023-02-01T15:41:28;100296.00;;;13.20
65569;BMP180;52211;50.154;8.682;2023-02-01T15:46:40;100300.00;;;13.20
65569;BMP180;52211;50.154;8.682;2023-02-01T15:49:26;100308.00;;;13.10
65569;BMP180;52211;50.154;8.682;2023-02-01T15:52:02;100308.00;;;13.10
65569;BMP180;52211;50.154;8.682;2023-02-01T15:54:43;100306.00;;;13.10
65569;BMP180;52211;50.154;8.682;2023-02-01T15:57:28;100324.00;;;13.10
65569;BMP180;52211;50.154;8.682;2023-02-01T16:03:04;100320.00;;;13.10
65569;BMP180;52211;50.154;8.682;2023-02-01T16:05:42;100320.00;;;13.00
65569;BMP180;52211;50.154;8.682;2023-02-01T16:08:20;100336.00;;;13.00
65569;BMP180;52211;50.154;8.682;2023-02-01T16:11:00;100336.00;;;12.90
65569;BMP180;52211;50.154;8.682;2023-02-01T16:13:28;100333.00;;;12.90
65569;BMP180;52211;50.154;8.682;2023-02-01T16:15:55;100318.00;;;12.90
65569;BMP180;52211;50.154;8.682;2023-02-01T16:18:22;100318.00;;;12.90
65569;BMP180;52211;50.154;8.682;2023-02-01T16:20:51;100325.00;;;12.90
65569;BMP180;52211;50.154;8.682;2023-02-01T16:23:20;100331.00;;;12.80
65569;BMP180;52211;50.154;8.682;2023-02-01T16:25:49;100325.00;;;12.80
65569;BMP180;52211;50.154;8.682;2023-02-01T16:28:16;100316.00;;;12.80
65569;BMP180;52211;50.154;8.682;2023-02-01T16:30:43;100319.00;;;12.80
65569;BMP180;52211;50.154;8.682;2023-02-01T16:33:20;100311.00;;;12.70
65569;BMP180;52211;50.154;8.682;2023-02-01T16:35:52;100319.00;;;12.70
65569;BMP180;52211;50.154;8.682;2023-02-01T16:38:23;100320.00;;;12.70
65569;BMP180;52211;50.154;8.682;2023-02-01T16:40:55;100323.00;;;12.70
65569;BMP180;52211;50.154;8.682;2023-02-01T16:43:27;100315.00;;;12.70
65569;BMP180;52211;50.154;8.682;2023-02-01T16:46:02;100313.00;;;12.70
65569;BMP180;52211;50.154;8.682;2023-02-01T16:48:39;100320.00;;;12.70
65569;BMP180;52211;50.154;8.682;2023-02-01T16:51:14;100307.00;;;12.70
65569;BMP180;52211;50.154;8.682;2023-02-01T16:53:44;100313.00;;;12.60
65569;BMP180;52211;50.154;8.682;2023-02-01T16:56:30;100316.00;;;12.60
65569;BMP180;52211;50.154;8.682;2023-02-01T16:59:05;100316.00;;;12.60
65569;BMP180;52211;50.154;8.682;2023-02-01T17:01:35;100299.00;;;12.50
65569;BMP180;52211;50.154;8.682;2023-02-01T17:04:09;100294.00;;;12.50
65569;BMP180;52211;50.154;8.682;2023-02-01T17:06:38;100304.00;;;12.50
65569;BMP180;52211;50.154;8.682;2023-02-01T17:09:06;100300.00;;;12.50